Airfield :
LOGIN :

Register | Disclaimer

   EN    FR    IT 

 










Legend :    VFR   Marginal VFR   IFR   Intensive IFR   Very Intensive IFR
Visi :
Ceiling :
>= 8 km
>= 3000ft
5 to 8 km
1000 to 3000 ft
1500m to 5 km
500 to 1000 ft
800 to 1500m
200 to 500 ft
< 800m
< 200 ft
Symbols :   Thunderstorms  Fog  Heavy snow  Heavy precipitations  Wind > 20 kt
SIGMETs :     Misc.  Thunderstorms  Icing  Turbulence  Mountain Waves  Volcanic Ashes







- Airport Elevation : 600 ft
- IATA code : VIE


LOWW - Vienna Schwechat

CURRENT METAR :
  • 202220Z 26014KT 9999 SHRA FEW020 FEW060CB SCT070 BKN090 20/16 Q1015 TEMPO 4500 TSRA

EXPIRED METARs :
  • 202150Z 30018KT 9999 FEW060 FEW060CB BKN090 21/16 Q1013 TEMPO SHRA
  • 202120Z 29023G35KT 9999 FEW060 FEW060CB BKN090 21/16 Q1013 TEMPO SHRA
  • 202050Z 30021G31KT 9999 FEW060 FEW060CB BKN090 23/15 Q1012 TEMPO SHRA
  • 202020Z 28023G37KT 9999 FEW060 FEW060CB SCT080 BKN130 23/15 Q1012 TEMPO TSRA
  • 201950Z 28023KT 9999 FEW060 FEW060CB SCT080 BKN130 24/16 Q1011 TEMPO TSRA

TAF AMD TAF LOWW
Valid from the 20 at 18:00 until the 22 at 00:00 UTC


201837Z 2018/2124 16007KT 9999 FEW050 BKN300 TX28/2019Z TN20/2105Z
BECMG 2019/2020 32012KT
TEMPO 2019/2104 32025G35KT 3000 TSRA FEW020 SCT040CB OVC045
TEMPO 2104/2110 8000 SHRA SCT025 BKN040
BECMG 2110/2112 09005KT FEW050
No reported NOTAMs for that airfield.
1 SIGMET reported for the Wien FIR (LOVV) :
 
Frequent thunderstorms
LOVV SIGMET 5 VALID 202101/202359 LOWW
LOVV WIEN FIR FRQ TS OBS WI N4910 E01620 - N4655 E01600 - N4650 E01505 - N4905 E01430 - N4910 E01620 TOP FL400 MOV E NC=



MET'MAP, your aeronautical weather chart ! - Copyright ORBIFLY December 2007 - Disclaimer

ORBIFLY MET'MAP TEAM :

Programming & Development : Alexandra Zaïnal
Concept & Development : Baudouin d'Aumeries
Co-Development & Prog : Marc-Olivier Méhu
Technical & hardware support : Manuel Goepfert

Contact : metmap@orbifly.com




SOURCES & CREDITS :

   NOAA